地図

経路データ

SID SEASON NUMBER BASIN SUBBASIN NAME ISO_TIME NATURE LAT LON WMO_WIND WMO_PRES WMO_AGENCY TRACK_TYPE DIST2LAND LANDFALL IFLAG USA_AGENCY USA_ATCF_ID USA_LAT USA_LON USA_RECORD USA_STATUS USA_WIND USA_PRES USA_SSHS USA_R34_NE USA_R34_SE USA_R34_SW USA_R34_NW USA_R50_NE USA_R50_SE USA_R50_SW USA_R50_NW USA_R64_NE USA_R64_SE USA_R64_SW USA_R64_NW USA_POCI USA_ROCI USA_RMW USA_EYE TOKYO_LAT TOKYO_LON TOKYO_GRADE TOKYO_WIND TOKYO_PRES TOKYO_R50_DIR TOKYO_R50_LONG TOKYO_R50_SHORT TOKYO_R30_DIR TOKYO_R30_LONG TOKYO_R30_SHORT TOKYO_LAND CMA_LAT CMA_LON CMA_CAT CMA_WIND CMA_PRES HKO_LAT HKO_LON HKO_CAT HKO_WIND HKO_PRES NEWDELHI_LAT NEWDELHI_LON NEWDELHI_GRADE NEWDELHI_WIND NEWDELHI_PRES NEWDELHI_CI NEWDELHI_DP NEWDELHI_POCI REUNION_LAT REUNION_LON REUNION_TYPE REUNION_WIND REUNION_PRES REUNION_TNUM REUNION_CI REUNION_RMW REUNION_R34_NE REUNION_R34_SE REUNION_R34_SW REUNION_R34_NW REUNION_R50_NE REUNION_R50_SE REUNION_R50_SW REUNION_R50_NW REUNION_R64_NE REUNION_R64_SE REUNION_R64_SW REUNION_R64_NW BOM_LAT BOM_LON BOM_TYPE BOM_WIND BOM_PRES BOM_TNUM BOM_CI BOM_RMW BOM_R34_NE BOM_R34_SE BOM_R34_SW BOM_R34_NW BOM_R50_NE BOM_R50_SE BOM_R50_SW BOM_R50_NW BOM_R64_NE BOM_R64_SE BOM_R64_SW BOM_R64_NW BOM_ROCI BOM_POCI BOM_EYE BOM_POS_METHOD BOM_PRES_METHOD NADI_LAT NADI_LON NADI_CAT NADI_WIND NADI_PRES WELLINGTON_LAT WELLINGTON_LON WELLINGTON_WIND WELLINGTON_PRES DS824_LAT DS824_LON DS824_STAGE DS824_WIND DS824_PRES TD9636_LAT TD9636_LON TD9636_STAGE TD9636_WIND TD9636_PRES TD9635_LAT TD9635_LON TD9635_WIND TD9635_PRES TD9635_ROCI NEUMANN_LAT NEUMANN_LON NEUMANN_CLASS NEUMANN_WIND NEUMANN_PRES MLC_LAT MLC_LON MLC_CLASS MLC_WIND MLC_PRES USA_GUST BOM_GUST BOM_GUST_PER REUNION_GUST REUNION_GUST_PER USA_SEAHGT USA_SEARAD_NE USA_SEARAD_SE USA_SEARAD_SW USA_SEARAD_NW STORM_SPEED STORM_DIR
1989067S17041 1989 22 SI MM NOT_NAMED 1989-03-07 12:00:00 TS -17.3000 41.4000 main 192 192 O_________O_O_ jtwc_sh SH181989 -17.3000 41.4000 20 -1 -17.3000 41.4000 1 20 -17.3000 41.4000 TC 20 7 0
1989067S17041 1989 22 SI MM NOT_NAMED 1989-03-07 15:00:00 TS -17.6480 41.4005 main 209 209 P_________P_P_ SH181989 -17.6650 41.4000 20 -1 -17.6140 41.4015 1 21 -17.6650 41.4000 TC 20 7 0
1989067S17041 1989 22 SI MM NOT_NAMED 1989-03-07 18:00:00 TS -17.9775 41.4008 main 238 238 O_________P_O_ jtwc_sh SH181989 -18.0000 41.4000 20 -1 -17.9325 41.4024 1 22 -18.0000 41.4000 TC 20 6 0
1989067S17041 1989 22 SI MM NOT_NAMED 1989-03-07 21:00:00 TS -18.2816 41.4007 main 263 263 P_________P_P_ SH181989 -18.2925 41.4000 22 -1 -18.2597 41.4021 1 23 -18.2925 41.4000 TC 22 6 182
1989067S17041 1989 22 SI MM NOT_NAMED 1989-03-08 00:00:00 TS -18.6000 41.4000 main 275 275 O_________O_O_ jtwc_sh SH181989 -18.6000 41.4000 25 -1 -18.6000 41.4000 1 25 -18.6000 41.4000 TC 25 7 0
1989067S17041 1989 22 SI MM NOT_NAMED 1989-03-08 03:00:00 TS -18.9761 41.3987 main 281 281 P_________P_P_ SH181989 -18.9850 41.4000 25 -1 -18.9582 41.3960 1 25 -18.9850 41.4000 TC 25 8 182
1989067S17041 1989 22 SI MM NOT_NAMED 1989-03-08 06:00:00 TS -19.3800 41.3975 main 295 288 O_________P_O_ jtwc_sh SH181989 -19.4000 41.4000 25 -1 -19.3400 41.3926 1 25 -19.4000 41.4000 TC 25 8 182
1989067S17041 1989 22 SI MM NOT_NAMED 1989-03-08 09:00:00 TS -19.7690 41.3976 main 282 256 P_________P_P_ SH181989 -19.7775 41.4000 25 -1 -19.7519 41.3929 1 25 -19.7775 41.4000 TC 25 8 178
1989067S17041 1989 22 SI MM NOT_NAMED 1989-03-08 12:00:00 TS -20.2000 41.4000 main 256 231 O_________O_O_ jtwc_sh SH181989 -20.2000 41.4000 25 -1 -20.2000 41.4000 1 25 -20.2000 41.4000 TC 25 9 181
1989067S17041 1989 22 SI MM NOT_NAMED 1989-03-08 15:00:00 TS -20.7075 41.3853 main 231 215 P_________P_P_ SH181989 -20.7350 41.3926 27 -1 -20.6524 41.3707 1 27 -20.7350 41.3926 TC 27 11 180
1989067S17041 1989 22 SI MM NOT_NAMED 1989-03-08 18:00:00 TS -21.2483 41.3851 main 215 193 O_________P_O_ jtwc_sh SH181989 -21.3000 41.4000 30 -1 -21.1448 41.3553 1 30 -21.3000 41.4000 TC 30 10 179
1989067S17041 1989 22 SI MM NOT_NAMED 1989-03-08 21:00:00 TS -21.7382 41.3945 main 193 174 P_________P_P_ SH181989 -21.7624 41.3982 32 -1 -21.6897 41.3870 1 32 -21.7624 41.3982 TC 32 11 174
1989067S17041 1989 22 SI MM NOT_NAMED 1989-03-09 00:00:00 TS -22.3000 41.5000 main 174 160 O_________O_O_ jtwc_sh SH181989 -22.3000 41.5000 35 0 -22.3000 41.5000 2 35 -22.3000 41.5000 TC 35 14 164
1989067S17041 1989 22 SI MM NOT_NAMED 1989-03-09 03:00:00 TS -23.0503 41.7959 main 167 152 P_________P_P_ SH181989 -23.0702 41.8118 35 0 -23.0104 41.7643 2 35 -23.0702 41.8118 TC 35 17 158
1989067S17041 1989 22 SI MM NOT_NAMED 1989-03-09 06:00:00 TS -23.8595 42.1695 main 144 129 O_________P_O_ jtwc_sh SH181989 -23.9000 42.2000 35 0 -23.7786 42.1084 2 35 -23.9000 42.2000 TC 35 17 158
1989067S17041 1989 22 SI MM NOT_NAMED 1989-03-09 09:00:00 TS -24.6107 42.5014 main 131 119 P_________P_P_ SH181989 -24.6374 42.5153 35 0 -24.5574 42.4737 2 35 -24.6374 42.5153 TC 35 16 158
1989067S17041 1989 22 SI MM NOT_NAMED 1989-03-09 12:00:00 TS -25.3000 42.8000 main 125 119 O_________O_O_ jtwc_sh SH181989 -25.3000 42.8000 35 0 -25.3000 42.8000 2 35 -25.3000 42.8000 TC 35 14 159
1989067S17041 1989 22 SI MM NOT_NAMED 1989-03-09 15:00:00 TS -25.8885 43.0566 main 135 135 P_________P_P_ SH181989 -25.8575 43.0876 35 0 -25.9506 42.9945 2 35 -25.8575 43.0876 TC 35 12 161
1989067S17041 1989 22 SI MM NOT_NAMED 1989-03-09 18:00:00 TS -26.4531 43.2468 main 179 173 O_________P_O_ jtwc_sh SH181989 -26.4000 43.3000 35 0 -26.5592 43.1405 2 35 -26.4000 43.3000 TC 35 12 168
1989067S17041 1989 22 SI MM NOT_NAMED 1989-03-09 21:00:00 TS -27.0743 43.3325 main 229 229 P_________P_P_ SH181989 -27.0424 43.3657 35 0 -27.1382 43.2661 2 35 -27.0424 43.3657 TC 35 13 174
1989067S17041 1989 22 SI MM NOT_NAMED 1989-03-10 00:00:00 TS -27.7000 43.4000 main 285 285 O_________O_O_ jtwc_sh SH181989 -27.7000 43.4000 35 0 -27.7000 43.4000 2 35 -27.7000 43.4000 TC 35 13 172
1989067S17041 1989 22 SI MM NOT_NAMED 1989-03-10 03:00:00 TS -28.3165 43.5340 main 345 345 P_________P_P_ SH181989 -28.3224 43.5201 35 0 -28.3046 43.5617 2 35 -28.3224 43.5201 TC 35 12 167
1989067S17041 1989 22 SI MM NOT_NAMED 1989-03-10 06:00:00 TS -28.8965 43.7135 main 397 397 O_________P_O_ jtwc_sh SH181989 -28.9000 43.7000 35 0 -28.8894 43.7406 2 35 -28.9000 43.7000 TC 35 12 163
1989067S17041 1989 22 SI MM NOT_NAMED 1989-03-10 09:00:00 TS -29.4448 43.9396 main 443 443 P_________P_P_ SH181989 -29.4525 43.9348 35 0 -29.4295 43.9492 2 35 -29.4525 43.9348 TC 35 11 157
1989067S17041 1989 22 SI MM NOT_NAMED 1989-03-10 12:00:00 TS -29.9000 44.2000 main 490 490 O_________O_O_ jtwc_sh SH181989 -29.9000 44.2000 35 0 -29.9000 44.2000 2 35 -29.9000 44.2000 TC 35 9 150
1989067S17041 1989 22 SI MM NOT_NAMED 1989-03-10 15:00:00 TS -30.2065 44.4365 main 519 518 P_________P_P_ SH181989 -30.1722 44.4208 32 -1 -30.2751 44.4678 2 33 -30.1722 44.4208 TC 32 7 141
1989067S17041 1989 22 SI MM NOT_NAMED 1989-03-10 18:00:00 TS -30.4604 44.7274 main 549 548 O_________P_O_ jtwc_sh SH181989 -30.4000 44.7000 30 -1 -30.5811 44.7823 2 32 -30.4000 44.7000 TC 30 8 134
1989067S17041 1989 22 SI MM NOT_NAMED 1989-03-10 21:00:00 TS -30.7772 45.1218 main 580 580 P_________P_P_ SH181989 -30.7424 45.1049 30 -1 -30.8466 45.1556 2 31 -30.7424 45.1049 TC 30 10 130
1989067S17041 1989 22 SI MM NOT_NAMED 1989-03-11 00:00:00 TS -31.1000 45.6000 main 614 614 O_________O_O_ jtwc_sh SH181989 -31.1000 45.6000 30 -1 -31.1000 45.6000 1 30 -31.1000 45.6000 TC 30 11 126
1989067S17041 1989 22 SI MM NOT_NAMED 1989-03-11 03:00:00 TS -31.3978 46.1212 main 650 650 P_________P_P_ SH181989 -31.4147 46.1203 30 -1 -31.3639 46.1231 1 30 -31.4147 46.1203 TC 30 11 122
1989067S17041 1989 22 SI MM NOT_NAMED 1989-03-11 06:00:00 TS -31.6795 46.7036 main 690 690 O_________P_O_ jtwc_sh SH181989 -31.7000 46.7000 30 -1 -31.6385 46.7107 1 30 -31.7000 46.7000 TC 30 12 118
1989067S17041 1989 22 SI MM NOT_NAMED 1989-03-11 09:00:00 TS -31.9451 47.3372 main 724 724 P_________P_P_ SH181989 -31.9582 47.3343 30 -1 -31.9188 47.3431 1 30 -31.9582 47.3343 TC 30 12 115
1989067S17041 1989 22 SI MM NOT_NAMED 1989-03-11 12:00:00 TS -32.2000 48.0000 main 775 O_________O_O_ jtwc_sh SH181989 -32.2000 48.0000 30 -1 -32.2000 48.0000 1 30 -32.2000 48.0000 TC 30 12 114

IBTrACS Databaseについて

本データベースは、米国NOAAが公開する1842年以降の世界の熱帯低気圧のベストトラックデータアーカイブInternational Best Track Archive for Climate Stewardship (IBTrACS)を、ウェブで閲覧しやすい形式に変換したものです。

最終更新日:2021-11-26